Time;durP1;ratioP1;P1;durP2;ratioP2;P2;SDS_P1;SDS_P2;PMS_P1;PMS_P2;Temp;Humidity;BMP_temperature;BMP_pressure;BME280_temperature;BME280_humidity;BME280_pressure;Samples;Min_cycle;Max_cycle;Signal;HPM_P1;HPM_P2
2022/02/21 00:00:46;;;;;;;5.62;1.20;;;13.70;53.00;;;;;;2285987;54;20948;-72
2022/02/21 00:03:15;;;;;;;3.85;0.95;;;13.70;52.90;;;;;;2521265;55;20964;-71
2022/02/21 00:05:41;;;;;;;7.57;1.20;;;13.70;52.90;;;;;;2264774;56;21600;-72
2022/02/21 00:08:08;;;;;;;5.62;1.75;;;13.80;53.00;;;;;;2288610;55;20942;-72
2022/02/21 00:10:34;;;;;;;3.58;0.90;;;13.80;52.90;;;;;;2294086;54;21053;-71
2022/02/21 00:13:00;;;;;;;3.37;0.90;;;13.80;52.90;;;;;;2521464;55;20981;-72
2022/02/21 00:15:27;;;;;;;5.37;1.00;;;13.80;52.90;;;;;;2286936;56;20972;-70
2022/02/21 00:17:56;;;;;;;4.18;1.25;;;13.80;52.90;;;;;;2398820;55;21021;-71
2022/02/21 00:20:23;;;;;;;4.25;1.10;;;13.70;52.80;;;;;;2288346;55;20977;-73
2022/02/21 00:22:49;;;;;;;5.00;1.20;;;13.70;53.00;;;;;;2329812;55;21410;-70
2022/02/21 00:25:16;;;;;;;5.37;1.45;;;13.70;53.00;;;;;;2289589;55;21392;-72
2022/02/21 00:27:42;;;;;;;4.37;1.00;;;13.70;53.10;;;;;;2285716;54;20925;-73
2022/02/21 00:30:09;;;;;;;4.75;1.15;;;13.70;53.10;;;;;;2286932;56;20948;-72
2022/02/21 00:32:36;;;;;;;4.90;0.90;;;13.60;53.10;;;;;;2286834;55;21016;-74
2022/02/21 00:35:05;;;;;;;4.95;1.02;;;13.60;53.20;;;;;;2288081;55;21477;-74
2022/02/21 00:37:31;;;;;;;7.28;1.42;;;13.60;53.30;;;;;;2288085;54;20938;-73
2022/02/21 00:39:58;;;;;;;3.85;0.90;;;13.50;53.30;;;;;;2288922;55;20998;-74
2022/02/21 00:42:24;;;;;;;4.93;1.20;;;13.50;53.40;;;;;;2297167;55;20936;-73
2022/02/21 00:44:56;;;;;;;5.07;1.02;;;13.40;53.50;;;;;;2288618;55;21018;-74
2022/02/21 00:47:25;;;;;;;4.18;1.10;;;13.30;53.50;;;;;;2283875;55;21049;-73
2022/02/21 00:49:52;;;;;;;5.65;1.08;;;13.30;53.70;;;;;;2287332;56;21386;-73
2022/02/21 00:52:19;;;;;;;5.70;1.37;;;13.20;53.90;;;;;;2335855;55;20968;-73
2022/02/21 00:54:45;;;;;;;5.45;1.20;;;13.20;54.00;;;;;;2286826;55;21002;-73
2022/02/21 00:57:12;;;;;;;3.50;1.00;;;13.20;54.10;;;;;;2287170;56;21056;-74
2022/02/21 00:59:39;;;;;;;5.93;1.23;;;13.20;54.10;;;;;;2350290;55;21028;-72
2022/02/21 01:02:05;;;;;;;5.75;1.33;;;13.20;54.10;;;;;;2287045;56;20967;-73
2022/02/21 01:04:31;;;;;;;4.20;1.10;;;13.20;54.20;;;;;;2421497;55;21549;-69
2022/02/21 01:06:58;;;;;;;5.05;1.30;;;13.20;54.20;;;;;;2287769;56;20952;-73
2022/02/21 01:09:25;;;;;;;5.95;1.00;;;13.20;54.20;;;;;;2287526;56;20988;-74
2022/02/21 01:11:52;;;;;;;6.75;1.00;;;13.20;54.30;;;;;;2287269;56;21456;-74
2022/02/21 01:14:18;;;;;;;4.07;1.40;;;13.20;54.30;;;;;;2287484;55;20968;-71
2022/02/21 01:16:45;;;;;;;3.42;1.08;;;13.20;54.40;;;;;;2287279;56;21560;-73
2022/02/21 01:19:11;;;;;;;5.25;1.10;;;13.20;54.40;;;;;;2521328;54;21466;-72
2022/02/21 01:21:38;;;;;;;5.45;0.80;;;13.20;54.60;;;;;;2292373;55;21473;-73
2022/02/21 01:24:04;;;;;;;4.57;1.08;;;13.20;54.60;;;;;;2290151;55;21026;-72
2022/02/21 01:26:31;;;;;;;5.05;1.00;;;13.20;54.70;;;;;;2284398;55;21442;-75
2022/02/21 01:28:57;;;;;;;5.05;1.02;;;13.20;54.70;;;;;;2521202;54;21775;-74
2022/02/21 01:31:24;;;;;;;3.85;1.10;;;13.10;54.60;;;;;;2289423;55;21124;-75
2022/02/21 01:33:51;;;;;;;6.32;1.00;;;13.10;54.80;;;;;;2366850;55;20961;-73
2022/02/21 01:36:17;;;;;;;4.32;1.00;;;13.20;54.80;;;;;;2437847;54;21048;-74
2022/02/21 01:38:44;;;;;;;5.45;0.98;;;13.20;54.90;;;;;;2287052;55;21603;-74
2022/02/21 01:41:10;;;;;;;7.80;1.58;;;13.20;54.80;;;;;;2287359;54;21041;-74
2022/02/21 01:43:37;;;;;;;2.87;0.90;;;13.20;54.90;;;;;;2282682;55;20940;-73
2022/02/21 01:46:03;;;;;;;2.33;0.70;;;13.20;54.80;;;;;;2287758;55;20961;-74
2022/02/21 01:48:30;;;;;;;4.97;1.10;;;13.30;54.90;;;;;;2287323;56;21009;-74
2022/02/21 01:50:56;;;;;;;3.50;0.88;;;13.30;54.90;;;;;;2286053;55;21014;-72
2022/02/21 01:53:22;;;;;;;4.80;1.27;;;13.30;54.80;;;;;;2287527;55;20936;-74
2022/02/21 01:55:50;;;;;;;7.50;1.08;;;13.30;54.80;;;;;;2288906;56;20972;-74
2022/02/21 01:58:17;;;;;;;3.90;0.93;;;13.30;54.70;;;;;;2302404;55;21047;-74
2022/02/21 02:00:44;;;;;;;4.93;0.77;;;13.40;54.80;;;;;;2454176;55;20973;-73
2022/02/21 02:03:10;;;;;;;4.82;1.15;;;13.40;54.80;;;;;;2288998;56;20959;-72
2022/02/21 02:05:39;;;;;;;4.37;0.93;;;13.40;54.70;;;;;;2287102;55;20981;-73
2022/02/21 02:08:05;;;;;;;4.12;0.98;;;13.40;54.60;;;;;;2331667;55;20976;-73
2022/02/21 02:10:31;;;;;;;3.90;0.80;;;13.40;54.60;;;;;;2288105;55;21465;-74
2022/02/21 02:12:58;;;;;;;2.87;0.70;;;13.40;54.60;;;;;;2289221;56;20953;-74
2022/02/21 02:15:25;;;;;;;4.43;0.90;;;13.40;54.60;;;;;;2288868;55;20949;-72
2022/02/21 02:17:52;;;;;;;3.62;0.95;;;13.40;54.50;;;;;;2289182;55;22209;-72
2022/02/21 02:20:18;;;;;;;4.82;1.05;;;13.40;54.50;;;;;;2292357;55;21076;-73
2022/02/21 02:22:45;;;;;;;3.72;0.80;;;13.50;54.60;;;;;;2269480;55;20942;-74
2022/02/21 02:25:14;;;;;;;4.97;0.90;;;13.40;54.50;;;;;;2289181;56;21438;-74
2022/02/21 02:27:41;;;;;;;3.62;0.80;;;13.40;54.50;;;;;;2316448;54;20985;-73
2022/02/21 02:30:07;;;;;;;3.62;0.80;;;13.40;54.50;;;;;;2328397;55;20952;-71
2022/02/21 02:32:34;;;;;;;5.35;1.52;;;13.40;54.50;;;;;;2289236;56;20961;-74
2022/02/21 02:35:00;;;;;;;4.37;1.27;;;13.40;54.50;;;;;;2523849;54;21000;-74
2022/02/21 02:37:27;;;;;;;3.30;0.85;;;13.40;54.60;;;;;;2340306;54;20994;-72
2022/02/21 02:39:53;;;;;;;3.22;0.88;;;13.40;54.70;;;;;;2288957;56;21329;-72
2022/02/21 02:42:21;;;;;;;3.53;0.90;;;13.40;54.70;;;;;;2289233;56;21052;-72
2022/02/21 02:44:47;;;;;;;6.22;0.98;;;13.30;54.80;;;;;;2289080;56;20928;-74
2022/02/21 02:47:13;;;;;;;5.20;0.95;;;13.30;54.90;;;;;;2291631;55;20997;-71
2022/02/21 02:49:40;;;;;;;3.92;1.05;;;13.30;55.00;;;;;;2464633;55;20965;-73
2022/02/21 02:52:06;;;;;;;4.37;0.90;;;13.30;55.10;;;;;;2288820;56;20968;-73
2022/02/21 02:54:33;;;;;;;4.43;1.08;;;13.20;55.20;;;;;;2289494;55;21001;-73
2022/02/21 02:56:59;;;;;;;3.22;1.17;;;13.20;55.30;;;;;;2287720;54;20971;-71
2022/02/21 02:59:26;;;;;;;3.53;0.85;;;13.20;55.40;;;;;;2288748;56;21060;-71
2022/02/21 03:01:52;;;;;;;3.58;0.90;;;13.10;55.50;;;;;;2352349;54;21024;-73
2022/02/21 03:04:19;;;;;;;5.78;0.98;;;13.10;55.50;;;;;;2288981;55;20941;-70
2022/02/21 03:06:45;;;;;;;4.15;1.20;;;13.00;55.40;;;;;;2289079;56;21015;-73
2022/02/21 03:09:12;;;;;;;2.97;0.70;;;13.00;55.60;;;;;;2293936;55;21684;-72
2022/02/21 03:11:38;;;;;;;4.03;0.90;;;12.90;55.70;;;;;;2289248;56;21560;-73
2022/02/21 03:14:05;;;;;;;3.30;0.90;;;12.90;55.70;;;;;;2288867;55;21449;-71
2022/02/21 03:16:32;;;;;;;4.30;0.85;;;12.80;55.90;;;;;;2369849;54;20940;-73
2022/02/21 03:18:59;;;;;;;2.17;0.70;;;12.80;56.20;;;;;;2288987;56;21457;-72
2022/02/21 03:21:26;;;;;;;3.05;0.88;;;12.80;56.10;;;;;;2476937;55;21012;-73
2022/02/21 03:23:52;;;;;;;2.45;0.68;;;12.70;56.80;;;;;;2289017;56;20944;-73
2022/02/21 03:26:19;;;;;;;2.65;0.70;;;12.70;56.30;;;;;;2351556;55;21815;-73
2022/02/21 03:28:45;;;;;;;2.55;0.65;;;12.60;56.30;;;;;;2287829;55;20945;-73
2022/02/21 03:31:12;;;;;;;2.75;0.73;;;12.60;56.40;;;;;;2345707;55;2327770;-72
2022/02/21 03:33:40;;;;;;;2.47;0.65;;;12.60;56.70;;;;;;2292912;55;20996;-73
2022/02/21 03:36:06;;;;;;;1.87;0.50;;;12.60;56.60;;;;;;2289785;56;20956;-74
2022/02/21 03:38:33;;;;;;;1.35;0.35;;;12.60;56.40;;;;;;2435509;55;21006;-70
2022/02/21 03:40:59;;;;;;;2.03;0.52;;;12.60;55.50;;;;;;2289819;55;21833;-73
2022/02/21 03:43:25;;;;;;;1.92;0.25;;;12.50;54.30;;;;;;2288437;56;20980;-72
2022/02/21 03:45:52;;;;;;;0.75;0.20;;;12.30;52.90;;;;;;2289213;55;20941;-71
2022/02/21 03:48:21;;;;;;;0.82;0.30;;;12.00;52.50;;;;;;2285956;55;21828;-70
2022/02/21 03:50:48;;;;;;;0.50;0.20;;;11.70;52.10;;;;;;2289061;55;20931;-71
2022/02/21 03:53:14;;;;;;;2.10;0.25;;;11.40;51.90;;;;;;2331440;54;21005;-72
2022/02/21 03:55:41;;;;;;;0.82;0.30;;;11.10;52.00;;;;;;2286770;55;20914;-73
2022/02/21 03:58:07;;;;;;;1.55;0.20;;;10.80;52.10;;;;;;2287948;55;21476;-72
2022/02/21 04:00:34;;;;;;;0.95;0.30;;;10.50;52.40;;;;;;2363318;54;21454;-71
2022/02/21 04:03:04;;;;;;;0.70;0.22;;;10.20;52.70;;;;;;2403908;54;20925;-72
2022/02/21 04:05:30;;;;;;;1.02;0.30;;;10.00;53.00;;;;;;2289153;56;21536;-72
2022/02/21 04:07:56;;;;;;;0.68;0.20;;;9.80;54.00;;;;;;2298273;55;20970;-72
2022/02/21 04:10:23;;;;;;;0.85;0.28;;;9.60;54.40;;;;;;2280977;55;20989;-73
2022/02/21 04:12:51;;;;;;;0.80;0.20;;;9.40;54.60;;;;;;2289214;56;20941;-72
2022/02/21 04:15:17;;;;;;;1.08;0.20;;;9.30;55.00;;;;;;2289775;56;20949;-73
2022/02/21 04:17:50;;;;;;;0.62;0.20;;;9.20;55.30;;;;;;2290555;55;20938;-72
2022/02/21 04:20:29;;;;;;;0.52;0.20;;;9.10;55.60;;;;;;2306165;55;21020;-72
2022/02/21 04:22:55;;;;;;;0.90;0.40;;;9.00;55.90;;;;;;2469411;55;21052;-72
2022/02/21 04:25:25;;;;;;;0.47;0.20;;;8.90;55.90;;;;;;2524130;55;20985;-73
2022/02/21 04:27:52;;;;;;;0.10;0.10;;;8.90;56.10;;;;;;2289358;55;20953;-71
2022/02/21 04:30:23;;;;;;;0.90;0.22;;;8.80;56.20;;;;;;2366791;55;22048;-73
2022/02/21 04:32:50;;;;;;;0.55;0.25;;;8.80;56.30;;;;;;2290253;55;20953;-72
2022/02/21 04:35:21;;;;;;;0.52;0.20;;;8.70;56.40;;;;;;2287260;54;20941;-72
2022/02/21 04:37:48;;;;;;;0.47;0.30;;;8.70;56.60;;;;;;2288272;55;21564;-72
2022/02/21 04:40:19;;;;;;;1.17;0.30;;;8.70;56.70;;;;;;2288930;56;20920;-72
2022/02/21 04:42:48;;;;;;;1.23;0.35;;;8.70;56.90;;;;;;2288847;56;20972;-73
2022/02/21 04:45:15;;;;;;;0.40;0.20;;;8.70;57.00;;;;;;2289614;56;20960;-72
2022/02/21 04:47:41;;;;;;;0.90;0.25;;;8.60;57.10;;;;;;2289263;56;20945;-73
2022/02/21 04:50:09;;;;;;;0.52;0.30;;;8.60;57.20;;;;;;2289293;56;20948;-73
2022/02/21 04:52:38;;;;;;;1.73;0.60;;;8.60;57.40;;;;;;2288973;56;21020;-73
2022/02/21 04:55:06;;;;;;;4.53;2.35;;;8.60;57.40;;;;;;2292835;54;20959;-73
2022/02/21 04:57:32;;;;;;;3.40;1.20;;;8.60;57.60;;;;;;2289129;55;21039;-73
2022/02/21 04:59:58;;;;;;;2.62;1.15;;;8.70;57.70;;;;;;2281986;55;20950;-73
2022/02/21 05:02:25;;;;;;;1.30;0.45;;;8.70;57.80;;;;;;2287035;55;21586;-73
2022/02/21 05:04:52;;;;;;;1.08;0.57;;;8.70;57.80;;;;;;2288702;56;24815;-73
2022/02/21 05:07:19;;;;;;;1.50;0.80;;;8.70;57.90;;;;;;2288835;56;20996;-73
2022/02/21 05:09:45;;;;;;;2.17;0.68;;;8.70;58.00;;;;;;2288190;56;21457;-73
2022/02/21 05:12:12;;;;;;;1.33;0.40;;;8.70;58.00;;;;;;2289120;56;20952;-73
2022/02/21 05:14:38;;;;;;;1.00;0.40;;;8.70;57.90;;;;;;2348977;54;21058;-73
2022/02/21 05:17:05;;;;;;;0.98;0.37;;;8.70;57.90;;;;;;2290597;55;20969;-74
2022/02/21 05:19:31;;;;;;;2.55;0.60;;;8.70;57.80;;;;;;2283880;55;20984;-72
2022/02/21 05:21:57;;;;;;;1.65;0.50;;;8.70;57.70;;;;;;2378121;55;21740;-74
2022/02/21 05:24:25;;;;;;;3.80;0.77;;;8.70;57.40;;;;;;2289097;56;21012;-74
2022/02/21 05:26:52;;;;;;;3.42;0.93;;;8.80;57.50;;;;;;2287624;55;20966;-74
2022/02/21 05:29:18;;;;;;;4.37;0.98;;;8.80;57.90;;;;;;2288863;56;20965;-74
2022/02/21 05:31:46;;;;;;;2.78;0.80;;;8.80;57.20;;;;;;2288727;56;20984;-74
2022/02/21 05:34:13;;;;;;;2.97;0.65;;;8.80;57.20;;;;;;2291977;55;21036;-73
2022/02/21 05:36:39;;;;;;;2.85;0.85;;;8.80;57.10;;;;;;2312325;55;21057;-74
2022/02/21 05:39:06;;;;;;;2.40;0.70;;;8.80;57.00;;;;;;2273835;54;21012;-73
2022/02/21 05:41:36;;;;;;;1.98;0.60;;;8.80;56.90;;;;;;2287652;55;21389;-73
2022/02/21 05:44:03;;;;;;;3.78;0.75;;;8.80;56.90;;;;;;2429465;55;21088;-73
2022/02/21 05:46:30;;;;;;;4.82;0.80;;;8.80;56.90;;;;;;2288216;54;21195;-73
2022/02/21 05:48:56;;;;;;;1.83;0.50;;;8.80;56.80;;;;;;2345683;54;21033;-73
2022/02/21 05:51:22;;;;;;;2.95;0.65;;;8.80;56.80;;;;;;2288557;55;21010;-73
2022/02/21 05:53:49;;;;;;;4.18;1.00;;;8.80;56.80;;;;;;2284411;55;21285;-73
2022/02/21 05:56:15;;;;;;;5.43;0.90;;;8.80;56.70;;;;;;2287864;55;20946;-74
2022/02/21 05:58:42;;;;;;;3.75;0.93;;;8.80;56.70;;;;;;2285055;55;20956;-73
2022/02/21 06:01:08;;;;;;;4.57;0.80;;;8.80;56.70;;;;;;2352624;55;21012;-73
2022/02/21 06:03:36;;;;;;;3.67;1.08;;;8.80;56.70;;;;;;2286741;56;21119;-73
2022/02/21 06:06:03;;;;;;;5.10;1.10;;;8.70;56.50;;;;;;2471113;54;20972;-73
2022/02/21 06:08:30;;;;;;;3.03;0.80;;;8.70;57.00;;;;;;2286189;56;20989;-73
2022/02/21 06:10:57;;;;;;;3.37;1.00;;;8.70;56.40;;;;;;2286299;55;21024;-73
2022/02/21 06:13:23;;;;;;;4.32;0.95;;;8.70;56.40;;;;;;2286388;56;21021;-73
2022/02/21 06:15:51;;;;;;;3.97;0.90;;;8.70;56.30;;;;;;2386532;54;20977;-73
2022/02/21 06:18:18;;;;;;;3.75;1.10;;;8.70;56.40;;;;;;2361956;55;20977;-74
2022/02/21 06:20:44;;;;;;;6.20;1.00;;;8.70;56.30;;;;;;2288732;55;20997;-74
2022/02/21 06:23:11;;;;;;;4.70;1.37;;;8.70;56.30;;;;;;2284833;54;20944;-74
2022/02/21 06:25:38;;;;;;;4.47;0.90;;;8.60;56.20;;;;;;2340229;55;21100;-73
2022/02/21 06:28:05;;;;;;;3.55;0.93;;;8.60;56.00;;;;;;2287062;56;21086;-73
2022/02/21 06:30:32;;;;;;;4.10;1.02;;;8.60;56.00;;;;;;2286089;55;20957;-73
2022/02/21 06:32:58;;;;;;;3.50;0.82;;;8.60;56.00;;;;;;2287160;56;20973;-73
2022/02/21 06:35:26;;;;;;;3.75;0.98;;;8.50;55.90;;;;;;2287324;56;20956;-74
2022/02/21 06:37:54;;;;;;;3.62;0.70;;;8.50;55.90;;;;;;2360789;55;20997;-73
2022/02/21 06:40:21;;;;;;;3.92;0.80;;;8.50;56.00;;;;;;2287082;56;21005;-73
2022/02/21 06:42:52;;;;;;;3.80;0.80;;;8.40;55.90;;;;;;2286303;56;21391;-73
2022/02/21 06:45:19;;;;;;;5.20;1.00;;;8.40;56.00;;;;;;2287231;56;21833;-73
2022/02/21 06:47:49;;;;;;;6.07;1.10;;;8.40;56.00;;;;;;2286878;56;20972;-73
2022/02/21 06:50:17;;;;;;;4.28;0.82;;;8.30;55.80;;;;;;2285830;55;20965;-73
2022/02/21 06:52:44;;;;;;;5.15;1.00;;;8.30;55.80;;;;;;2286528;55;21048;-73
2022/02/21 06:55:12;;;;;;;7.65;1.58;;;8.30;55.80;;;;;;2286896;56;20956;-73
2022/02/21 06:57:43;;;;;;;3.50;0.95;;;8.20;55.70;;;;;;2346026;55;21242;-73
2022/02/21 07:00:10;;;;;;;5.10;1.15;;;8.20;55.60;;;;;;2337553;55;21605;-73
2022/02/21 07:02:36;;;;;;;7.20;1.65;;;8.20;55.70;;;;;;2311743;55;20992;-73
2022/02/21 07:05:04;;;;;;;5.30;1.05;;;8.20;55.80;;;;;;2287195;56;20953;-73
2022/02/21 07:07:32;;;;;;;6.32;1.23;;;8.20;55.80;;;;;;2287029;56;20977;-73
2022/02/21 07:09:58;;;;;;;5.30;1.25;;;8.10;55.70;;;;;;2363717;54;20988;-73
2022/02/21 07:12:25;;;;;;;12.18;1.85;;;8.20;55.70;;;;;;2287001;56;21005;-74
2022/02/21 07:14:52;;;;;;;7.15;1.70;;;8.20;55.70;;;;;;2374044;55;21754;-73
2022/02/21 07:17:20;;;;;;;7.37;1.33;;;8.20;55.60;;;;;;2287492;56;20973;-73
2022/02/21 07:19:49;;;;;;;6.25;1.35;;;8.20;55.70;;;;;;2264615;56;20993;-73
2022/02/21 07:22:16;;;;;;;6.93;1.30;;;8.20;55.60;;;;;;2286402;56;21249;-73
2022/02/21 07:24:42;;;;;;;8.98;1.35;;;8.20;55.60;;;;;;2286837;56;21517;-73
2022/02/21 07:27:09;;;;;;;6.30;1.30;;;8.20;55.80;;;;;;2287529;56;20980;-73
2022/02/21 07:29:36;;;;;;;7.10;1.70;;;8.30;56.00;;;;;;2286693;56;20953;-73
2022/02/21 07:32:04;;;;;;;5.93;1.58;;;8.30;56.00;;;;;;2287089;56;21012;-73
2022/02/21 07:34:30;;;;;;;7.28;1.50;;;8.30;56.10;;;;;;2319188;54;20920;-74
2022/02/21 07:36:57;;;;;;;12.18;1.90;;;8.30;56.20;;;;;;2287016;56;20960;-72
2022/02/21 07:39:24;;;;;;;6.05;1.30;;;8.40;56.20;;;;;;2323840;55;21512;-73
2022/02/21 07:41:50;;;;;;;6.28;1.40;;;8.40;56.20;;;;;;2286359;56;20942;-73
2022/02/21 07:44:17;;;;;;;10.88;1.73;;;8.50;56.30;;;;;;2310232;55;20956;-73
2022/02/21 07:46:43;;;;;;;7.53;1.60;;;8.50;56.30;;;;;;2340221;55;21068;-73
2022/02/21 07:49:09;;;;;;;6.87;1.98;;;8.60;56.30;;;;;;2286529;56;21015;-73
2022/02/21 07:51:36;;;;;;;8.85;1.48;;;8.60;56.40;;;;;;2286613;56;20948;-73
2022/02/21 07:54:02;;;;;;;7.10;1.98;;;8.60;56.30;;;;;;2286921;56;20961;-73
2022/02/21 07:56:40;;;;;;;11.20;2.00;;;8.70;56.20;;;;;;2286811;56;20961;-73
2022/02/21 07:59:06;;;;;;;10.18;2.12;;;8.70;56.20;;;;;;2286997;56;21474;-74
2022/02/21 08:01:33;;;;;;;7.22;1.92;;;8.80;56.20;;;;;;2286831;55;21771;-73
2022/02/21 08:03:59;;;;;;;5.40;1.45;;;8.90;56.20;;;;;;2285107;55;21623;-74
2022/02/21 08:06:26;;;;;;;8.02;1.50;;;8.90;56.20;;;;;;2488065;55;20953;-73
2022/02/21 08:08:55;;;;;;;6.12;1.60;;;8.90;56.10;;;;;;2342524;55;20949;-74
2022/02/21 08:11:24;;;;;;;6.62;1.25;;;9.00;56.00;;;;;;2289327;56;20948;-73
2022/02/21 08:13:54;;;;;;;10.20;1.87;;;9.00;56.10;;;;;;2265729;56;21022;-73
2022/02/21 08:16:21;;;;;;;10.00;2.03;;;9.00;55.90;;;;;;2292611;55;20921;-73
2022/02/21 08:18:47;;;;;;;7.78;2.08;;;9.10;55.90;;;;;;2410434;55;20969;-73
2022/02/21 08:21:14;;;;;;;8.40;2.05;;;9.10;55.90;;;;;;2288680;56;21810;-73
2022/02/21 08:23:41;;;;;;;5.43;1.35;;;9.10;55.80;;;;;;2289697;55;20929;-74
2022/02/21 08:26:08;;;;;;;7.35;1.80;;;9.10;55.70;;;;;;2286365;55;20980;-73
2022/02/21 08:28:34;;;;;;;8.95;2.03;;;9.20;55.70;;;;;;2288244;55;21880;-74
2022/02/21 08:31:01;;;;;;;11.55;1.80;;;9.20;55.60;;;;;;2365211;55;20952;-74
2022/02/21 08:33:27;;;;;;;9.73;2.35;;;9.20;55.40;;;;;;2288251;55;20953;-73
2022/02/21 08:35:54;;;;;;;6.47;2.10;;;9.20;55.40;;;;;;2377287;55;20964;-74
2022/02/21 08:38:21;;;;;;;7.87;2.15;;;9.20;55.20;;;;;;2293313;55;21079;-73
2022/02/21 08:40:52;;;;;;;7.95;1.80;;;9.20;55.10;;;;;;2289220;55;20921;-73
2022/02/21 08:43:18;;;;;;;9.45;1.80;;;9.20;55.10;;;;;;2288790;56;20933;-73
2022/02/21 08:45:48;;;;;;;5.10;1.40;;;9.20;55.20;;;;;;2308059;55;20961;-73
2022/02/21 08:48:15;;;;;;;6.78;1.52;;;9.20;55.20;;;;;;2419871;54;20988;-73
2022/02/21 08:50:42;;;;;;;5.60;1.65;;;9.20;55.30;;;;;;2335750;55;20988;-73
2022/02/21 08:53:08;;;;;;;8.27;1.52;;;9.30;55.20;;;;;;2290574;55;20981;-73
2022/02/21 08:55:35;;;;;;;7.32;1.70;;;9.30;55.20;;;;;;2286849;55;21470;-73
2022/02/21 08:58:01;;;;;;;9.57;2.20;;;9.30;55.40;;;;;;2288528;56;21852;-73
2022/02/21 09:00:27;;;;;;;9.73;1.80;;;9.40;55.70;;;;;;2321420;55;21008;-73
2022/02/21 09:02:54;;;;;;;7.35;1.70;;;9.40;55.70;;;;;;2286827;56;20920;-73
2022/02/21 09:05:27;;;;;;;6.60;1.85;;;9.50;55.90;;;;;;2287429;55;21167;-73
2022/02/21 09:07:53;;;;;;;10.63;2.40;;;9.60;55.80;;;;;;2287187;56;20925;-73
2022/02/21 09:10:20;;;;;;;11.98;4.05;;;9.60;55.80;;;;;;2291204;55;21013;-74
2022/02/21 09:12:47;;;;;;;12.32;2.95;;;9.70;55.80;;;;;;2290723;55;21470;-73
2022/02/21 09:15:15;;;;;;;8.20;2.35;;;9.70;55.70;;;;;;2295698;55;20957;-74
2022/02/21 09:17:42;;;;;;;8.80;2.15;;;9.80;55.50;;;;;;2286970;56;20992;-74
2022/02/21 09:20:10;;;;;;;9.82;1.70;;;9.80;55.20;;;;;;2430477;54;20976;-73
2022/02/21 09:22:37;;;;;;;6.60;1.50;;;9.90;55.10;;;;;;2286962;55;21626;-73
2022/02/21 09:25:09;;;;;;;9.20;2.05;;;10.00;54.20;;;;;;2300741;55;21052;-73
2022/02/21 09:27:36;;;;;;;13.30;3.12;;;10.10;54.10;;;;;;2288691;56;21431;-73
2022/02/21 09:30:05;;;;;;;9.70;2.35;;;10.10;54.00;;;;;;2289125;56;20948;-72
2022/02/21 09:32:36;;;;;;;7.87;1.98;;;10.20;53.90;;;;;;2290244;55;21115;-73
2022/02/21 09:35:02;;;;;;;8.30;1.73;;;10.30;53.60;;;;;;2319068;55;20999;-74
2022/02/21 09:37:30;;;;;;;8.60;1.73;;;10.30;53.40;;;;;;2289127;56;20964;-73
2022/02/21 09:39:57;;;;;;;7.62;1.92;;;10.30;53.20;;;;;;2288681;56;20953;-74
2022/02/21 09:42:27;;;;;;;7.22;1.52;;;10.30;53.10;;;;;;2330336;55;20972;-74
2022/02/21 09:44:53;;;;;;;5.35;1.65;;;10.30;52.90;;;;;;2341799;55;21017;-73
2022/02/21 09:47:22;;;;;;;11.18;1.90;;;10.30;52.70;;;;;;2289648;56;21012;-74
2022/02/21 09:49:49;;;;;;;9.88;1.87;;;10.30;52.70;;;;;;2295022;55;21021;-72
2022/02/21 09:52:16;;;;;;;10.27;2.62;;;10.30;52.70;;;;;;2288832;54;20961;-73
2022/02/21 09:54:42;;;;;;;6.05;1.42;;;10.30;52.70;;;;;;2367213;54;20973;-73
2022/02/21 09:57:15;;;;;;;7.00;1.85;;;10.20;52.60;;;;;;2289349;55;21033;-74
2022/02/21 09:59:41;;;;;;;9.18;2.00;;;10.20;52.70;;;;;;2397923;55;20960;-73
2022/02/21 10:02:11;;;;;;;7.80;1.70;;;10.20;52.70;;;;;;2288902;56;20945;-72
2022/02/21 10:04:38;;;;;;;5.87;1.52;;;10.20;52.70;;;;;;2413833;55;20984;-73
2022/02/21 10:07:05;;;;;;;8.88;1.80;;;10.30;53.40;;;;;;2288996;56;21569;-73
2022/02/21 10:09:31;;;;;;;5.95;1.20;;;10.30;53.80;;;;;;2288890;56;21679;-72
2022/02/21 10:11:59;;;;;;;5.47;1.50;;;10.50;54.10;;;;;;2329313;55;21907;-74
2022/02/21 10:14:29;;;;;;;6.62;1.55;;;10.60;54.40;;;;;;2287581;54;20960;-74
2022/02/21 10:17:00;;;;;;;5.93;1.52;;;10.80;55.00;;;;;;2361778;54;20970;-74
2022/02/21 10:19:35;;;;;;;7.43;1.30;;;11.10;55.20;;;;;;2345598;55;21466;-74
2022/02/21 10:22:12;;;;;;;7.18;1.70;;;11.20;54.90;;;;;;2297237;55;21062;-73
2022/02/21 10:24:49;;;;;;;6.55;1.40;;;11.50;54.40;;;;;;2487248;54;20973;-74
2022/02/21 10:27:29;;;;;;;7.62;1.80;;;11.60;54.00;;;;;;2289554;54;21334;-73
2022/02/21 10:29:59;;;;;;;7.10;1.30;;;11.70;53.30;;;;;;2313904;54;21030;-73
2022/02/21 10:32:36;;;;;;;5.70;1.50;;;11.80;52.90;;;;;;2278918;55;20949;-75
2022/02/21 10:35:17;;;;;;;6.62;1.48;;;11.80;52.20;;;;;;2451023;54;20962;-73
2022/02/21 10:37:48;;;;;;;7.25;1.90;;;11.80;50.80;;;;;;2349655;54;21672;-73
2022/02/21 10:40:18;;;;;;;5.95;1.10;;;11.80;51.10;;;;;;2320107;54;20954;-73
2022/02/21 10:42:59;;;;;;;4.10;1.00;;;11.80;51.40;;;;;;2280497;55;20990;-73
2022/02/21 10:45:27;;;;;;;5.32;1.40;;;11.70;51.30;;;;;;2325684;54;22272;-73
2022/02/21 10:48:01;;;;;;;3.97;1.30;;;11.70;51.00;;;;;;2282708;55;21049;-74
2022/02/21 10:50:28;;;;;;;7.10;1.20;;;11.80;51.00;;;;;;2283841;54;21498;-73
2022/02/21 10:52:54;;;;;;;5.40;1.33;;;11.80;50.80;;;;;;2280796;55;21478;-73
2022/02/21 10:55:32;;;;;;;6.95;1.37;;;11.80;50.70;;;;;;2301406;55;20958;-73
2022/02/21 10:57:59;;;;;;;4.53;1.15;;;11.80;50.40;;;;;;2280715;55;20962;-73
2022/02/21 11:00:26;;;;;;;4.43;1.27;;;11.70;50.40;;;;;;2295631;55;20927;-73
2022/02/21 11:02:52;;;;;;;8.55;1.70;;;11.70;50.90;;;;;;2280545;55;21431;-72
2022/02/21 11:05:18;;;;;;;4.53;1.15;;;11.70;51.20;;;;;;2292461;55;20962;-74
2022/02/21 11:07:46;;;;;;;6.10;1.20;;;11.80;51.30;;;;;;2285384;55;20952;-74
2022/02/21 11:10:12;;;;;;;5.90;1.45;;;11.80;51.30;;;;;;2273757;55;21428;-74
2022/02/21 11:12:43;;;;;;;6.15;1.35;;;11.80;51.30;;;;;;2280960;55;20963;-73
2022/02/21 11:15:10;;;;;;;7.82;1.30;;;11.80;51.20;;;;;;2291171;55;20986;-73
2022/02/21 11:17:37;;;;;;;6.07;1.20;;;11.80;51.20;;;;;;2288761;55;20965;-74
2022/02/21 11:20:07;;;;;;;5.87;1.50;;;11.80;51.10;;;;;;2330427;54;20926;-73
2022/02/21 11:22:35;;;;;;;6.25;1.00;;;11.80;50.90;;;;;;2280705;55;20994;-74
2022/02/21 11:25:27;;;;;;;6.12;1.33;;;11.80;51.40;;;;;;2387743;54;20978;-73
2022/02/21 11:28:19;;;;;;;5.32;1.70;;;11.90;51.70;;;;;;2298580;55;21121;-74
2022/02/21 11:30:47;;;;;;;;;;;12.10;51.80;;;;;;2420031;54;20989;-73
2022/02/21 11:33:13;;;;;;;5.45;1.35;;;12.20;51.40;;;;;;2280524;55;20177;-74
2022/02/21 11:36:05;;;;;;;4.40;1.17;;;12.30;51.60;;;;;;2278743;55;20930;-74
2022/02/21 11:38:33;;;;;;;4.20;1.25;;;12.40;51.00;;;;;;2497828;54;20951;-73
2022/02/21 11:41:10;;;;;;;6.43;1.65;;;12.40;51.20;;;;;;2446232;54;20970;-73
2022/02/21 11:43:43;;;;;;;4.90;1.45;;;12.40;50.00;;;;;;2281696;55;21529;-74
2022/02/21 11:46:30;;;;;;;6.18;1.85;;;12.50;50.40;;;;;;2346457;54;20971;-74
2022/02/21 11:49:03;;;;;;;6.57;1.33;;;12.60;50.20;;;;;;2453244;54;21054;-74
2022/02/21 11:51:37;;;;;;;6.10;2.30;;;12.60;50.00;;;;;;2341144;54;20954;-73
2022/02/21 11:55:32;;;;;;;7.20;1.85;;;12.60;49.30;;;;;;2318972;54;21498;-74
2022/02/21 11:57:59;;;;;;;6.18;1.87;;;12.60;48.90;;;;;;2373556;54;21463;-75
2022/02/21 12:00:59;;;;;;;5.53;1.30;;;12.60;48.90;;;;;;2303705;54;21864;-73
2022/02/21 12:03:26;;;;;;;4.03;1.27;;;12.50;48.50;;;;;;2278178;55;20963;-72
2022/02/21 12:06:35;;;;;;;3.42;0.90;;;12.40;48.70;;;;;;2300870;55;21404;-73
2022/02/21 12:09:03;;;;;;;4.93;1.00;;;12.30;47.10;;;;;;2359496;54;21716;-74
2022/02/21 12:11:30;;;;;;;5.43;1.52;;;12.30;48.00;;;;;;2325048;54;21014;-71
2022/02/21 12:14:18;;;;;;;7.47;1.25;;;12.20;47.80;;;;;;2281448;55;20988;-73
2022/02/21 12:17:05;;;;;;;7.18;1.35;;;12.10;47.60;;;;;;2302958;55;21389;-74
2022/02/21 12:19:33;;;;;;;2.72;0.82;;;12.00;46.90;;;;;;2278000;55;21499;-73
2022/02/21 12:22:18;;;;;;;6.20;1.20;;;11.90;47.50;;;;;;2370895;54;21786;-72
2022/02/21 12:25:11;;;;;;;6.47;1.23;;;11.80;47.40;;;;;;2278680;55;21026;-74
2022/02/21 12:27:38;;;;;;;3.75;1.05;;;11.70;47.40;;;;;;2278746;55;20970;-72
2022/02/21 12:30:05;;;;;;;5.45;1.37;;;11.70;47.60;;;;;;2278426;55;20962;-72
2022/02/21 12:32:32;;;;;;;11.68;3.20;;;11.60;47.50;;;;;;2278581;55;20954;-72
2022/02/21 12:35:00;;;;;;;6.57;2.50;;;11.60;47.80;;;;;;2279435;55;20958;-72
2022/02/21 12:37:34;;;;;;;5.75;1.83;;;11.60;48.00;;;;;;2279233;55;21002;-73
2022/02/21 12:40:03;;;;;;;6.65;1.92;;;11.60;48.00;;;;;;2279606;55;20970;-73
2022/02/21 12:42:30;;;;;;;7.00;1.20;;;11.60;47.70;;;;;;2278187;55;21026;-72
2022/02/21 12:44:56;;;;;;;3.67;1.20;;;11.50;47.90;;;;;;2280420;55;20947;-74
2022/02/21 12:47:23;;;;;;;6.10;0.95;;;11.50;47.90;;;;;;2279027;55;20955;-74
2022/02/21 12:49:53;;;;;;;3.35;0.85;;;11.50;48.00;;;;;;2278967;55;20970;-73
2022/02/21 12:52:19;;;;;;;3.83;0.77;;;11.50;48.20;;;;;;2283462;54;21821;-73
2022/02/21 12:54:53;;;;;;;7.50;1.35;;;11.40;48.30;;;;;;2278113;55;21081;-74
2022/02/21 12:57:21;;;;;;;6.12;1.20;;;11.40;48.10;;;;;;2335996;54;20962;-73